createdAt,value
2022-12-26T00:00:16.370Z,8.40
2022-12-26T00:03:19.170Z,8.87
2022-12-26T00:06:24.040Z,8.03
2022-12-26T00:09:26.606Z,8.43
2022-12-26T00:12:29.252Z,8.10
2022-12-26T00:15:33.207Z,6.77
2022-12-26T00:18:35.829Z,6.73
2022-12-26T00:21:38.419Z,6.27
2022-12-26T00:24:40.999Z,6.90
2022-12-26T00:27:43.591Z,6.07
2022-12-26T00:30:47.528Z,7.10
2022-12-26T00:33:50.164Z,7.13
2022-12-26T00:36:52.808Z,7.50
2022-12-26T00:39:56.192Z,6.93
2022-12-26T00:42:58.771Z,7.47
2022-12-26T00:46:03.147Z,7.00
2022-12-26T00:49:05.753Z,6.50
2022-12-26T00:52:08.391Z,6.87
2022-12-26T00:55:11.551Z,6.63
2022-12-26T00:58:14.183Z,5.83
2022-12-26T01:01:20.488Z,6.17
2022-12-26T01:04:23.222Z,6.43
2022-12-26T01:07:25.817Z,6.23
2022-12-26T01:10:29.257Z,6.30
2022-12-26T01:13:31.992Z,6.87
2022-12-26T01:16:36.041Z,6.90
2022-12-26T01:19:38.694Z,7.00
2022-12-26T01:22:41.388Z,7.47
2022-12-26T01:26:17.323Z,7.20
2022-12-26T01:29:06.587Z,7.77
2022-12-26T01:32:10.614Z,8.57
2022-12-26T01:35:13.206Z,7.73
2022-12-26T01:38:15.841Z,7.03
2022-12-26T01:41:19.857Z,8.17
2022-12-26T01:45:02.727Z,8.03
2022-12-26T01:48:16.596Z,7.43
2022-12-26T01:51:22.098Z,7.77
2022-12-26T01:54:40.935Z,7.50
2022-12-26T01:57:48.652Z,8.67
2022-12-26T02:00:52.133Z,8.03
2022-12-26T02:04:14.222Z,8.13
2022-12-26T02:07:16.868Z,9.10
2022-12-26T02:10:24.913Z,7.53
2022-12-26T02:13:30.316Z,8.17
2022-12-26T02:16:34.282Z,8.50
2022-12-26T02:19:44.368Z,7.97
2022-12-26T02:23:33.405Z,8.03
2022-12-26T02:27:11.206Z,7.97
2022-12-26T02:30:36.990Z,7.37
2022-12-26T02:33:56.229Z,8.60
2022-12-26T02:37:14.115Z,8.07
2022-12-26T02:40:30.480Z,7.53
2022-12-26T02:43:53.503Z,7.10
2022-12-26T02:47:09.199Z,8.67
2022-12-26T02:50:38.857Z,7.77
2022-12-26T02:54:07.694Z,7.20
2022-12-26T02:57:35.458Z,7.97
2022-12-26T03:00:57.823Z,7.60
2022-12-26T03:04:23.112Z,7.53
2022-12-26T03:07:46.926Z,7.80
2022-12-26T03:11:09.206Z,7.67
2022-12-26T03:14:18.257Z,7.27
2022-12-26T03:17:27.688Z,8.00
2022-12-26T03:20:34.459Z,8.03
2022-12-26T03:23:40.779Z,8.10
2022-12-26T03:26:48.261Z,8.37
2022-12-26T03:30:08.516Z,8.33
2022-12-26T03:33:31.490Z,7.73
2022-12-26T03:36:48.067Z,8.40
2022-12-26T03:40:17.363Z,9.00
2022-12-26T03:43:50.441Z,8.60
2022-12-26T03:47:23.782Z,8.83
2022-12-26T03:50:51.706Z,9.17
2022-12-26T03:54:23.212Z,9.60
2022-12-26T03:57:51.730Z,10.30
2022-12-26T04:01:14.975Z,8.03
2022-12-26T04:04:37.212Z,9.27
2022-12-26T04:08:00.180Z,8.93
2022-12-26T04:11:22.905Z,8.07
2022-12-26T04:15:00.439Z,8.23
2022-12-26T04:18:24.249Z,7.47
2022-12-26T04:21:49.638Z,7.20
2022-12-26T04:25:15.178Z,7.90
2022-12-26T04:28:37.235Z,7.87
2022-12-26T04:32:03.972Z,6.70
2022-12-26T04:35:31.655Z,9.00
2022-12-26T04:38:57.863Z,9.00
2022-12-26T04:42:18.982Z,9.10
2022-12-26T04:45:24.034Z,9.50
2022-12-26T04:48:44.220Z,9.80
2022-12-26T04:51:46.807Z,9.83
2022-12-26T04:54:50.790Z,9.40
2022-12-26T04:57:54.331Z,10.33
2022-12-26T05:01:18.888Z,11.03
2022-12-26T05:04:39.008Z,9.77
2022-12-26T05:08:10.732Z,10.30
2022-12-26T05:11:13.298Z,9.97
2022-12-26T05:14:15.895Z,9.50
2022-12-26T05:17:37.459Z,9.00
2022-12-26T05:20:58.248Z,9.60
2022-12-26T05:24:20.889Z,9.27
2022-12-26T05:27:41.883Z,8.60
2022-12-26T05:30:44.642Z,9.20
2022-12-26T05:34:06.602Z,9.80
2022-12-26T05:37:09.903Z,9.17
2022-12-26T05:40:13.039Z,9.40
2022-12-26T05:43:15.600Z,10.67
2022-12-26T05:46:18.268Z,11.07
2022-12-26T05:49:22.233Z,10.57
2022-12-26T05:52:24.821Z,9.97
2022-12-26T05:55:27.891Z,9.47
2022-12-26T05:58:30.485Z,10.47
2022-12-26T06:01:33.103Z,10.90
2022-12-26T06:04:37.398Z,11.73
2022-12-26T06:07:39.959Z,12.23
2022-12-26T06:10:42.531Z,11.93
2022-12-26T06:13:45.460Z,12.23
2022-12-26T06:16:48.140Z,9.20
2022-12-26T06:19:52.172Z,9.20
2022-12-26T06:22:54.795Z,9.60
2022-12-26T06:25:58.379Z,9.10
2022-12-26T06:29:00.967Z,9.00
2022-12-26T06:32:04.581Z,8.57
2022-12-26T06:35:09.527Z,9.13
2022-12-26T06:38:12.920Z,8.53
2022-12-26T06:41:17.577Z,8.07
2022-12-26T06:44:20.276Z,7.87
2022-12-26T06:47:22.885Z,7.37
2022-12-26T06:50:27.401Z,8.20
2022-12-26T06:53:29.981Z,8.23
2022-12-26T06:56:34.175Z,7.17
2022-12-26T06:59:36.761Z,7.50
2022-12-26T07:02:39.530Z,7.27
2022-12-26T07:05:43.577Z,7.63
2022-12-26T07:08:46.178Z,7.97
2022-12-26T07:11:50.651Z,8.00
2022-12-26T07:14:56.682Z,7.07
2022-12-26T07:18:03.881Z,7.10
2022-12-26T07:21:09.468Z,7.73
2022-12-26T07:24:16.135Z,7.57
2022-12-26T07:27:18.710Z,7.37
2022-12-26T07:30:21.302Z,7.17
2022-12-26T07:33:24.492Z,7.30
2022-12-26T07:36:28.409Z,7.07
2022-12-26T07:39:31.136Z,7.40
2022-12-26T07:42:33.724Z,7.03
2022-12-26T07:45:41.874Z,7.10
2022-12-26T07:48:47.772Z,7.97
2022-12-26T07:51:52.236Z,7.50
2022-12-26T07:54:54.799Z,7.83
2022-12-26T07:57:57.385Z,8.37
2022-12-26T08:01:01.812Z,9.07
2022-12-26T08:04:04.818Z,10.17
2022-12-26T08:07:09.020Z,10.30
2022-12-26T08:10:11.626Z,10.33
2022-12-26T08:13:14.261Z,11.50
2022-12-26T08:16:17.841Z,11.93
2022-12-26T08:19:20.522Z,12.00
2022-12-26T08:22:24.483Z,11.60
2022-12-26T08:25:27.089Z,12.77
2022-12-26T08:28:29.655Z,12.83
2022-12-26T08:31:32.289Z,13.00
2022-12-26T08:34:35.489Z,14.00
2022-12-26T08:37:39.453Z,13.70
2022-12-26T08:40:43.660Z,13.30
2022-12-26T08:47:12.469Z,13.10
2022-12-26T08:50:16.058Z,16.00
2022-12-26T08:53:20.056Z,14.73
2022-12-26T08:56:25.046Z,15.53
2022-12-26T08:59:27.637Z,16.20
2022-12-26T09:02:30.348Z,15.90
2022-12-26T09:05:33.342Z,24.53
2022-12-26T09:08:38.608Z,17.17
2022-12-26T09:11:43.203Z,18.03
2022-12-26T09:14:50.147Z,17.37
2022-12-26T09:17:52.946Z,16.40
2022-12-26T09:20:55.512Z,15.33
2022-12-26T09:24:01.617Z,16.03
2022-12-26T09:27:04.305Z,16.33
2022-12-26T09:30:07.931Z,15.47
2022-12-26T09:33:10.534Z,15.40
2022-12-26T09:36:15.626Z,16.00
2022-12-26T09:39:19.592Z,15.87
2022-12-26T09:42:32.909Z,14.47
2022-12-26T09:45:56.146Z,15.13
2022-12-26T09:49:03.430Z,15.00
2022-12-26T09:52:12.490Z,13.83
2022-12-26T09:55:36.246Z,14.93
2022-12-26T09:58:45.563Z,13.80
2022-12-26T10:01:49.139Z,13.67
2022-12-26T10:04:52.641Z,13.67
2022-12-26T10:08:00.715Z,13.20
2022-12-26T10:11:08.737Z,13.87
2022-12-26T10:14:21.564Z,13.20
2022-12-26T10:17:32.140Z,12.60
2022-12-26T10:20:46.168Z,13.10
2022-12-26T10:23:52.434Z,14.13
2022-12-26T10:27:01.299Z,12.67
2022-12-26T10:30:09.007Z,12.83
2022-12-26T10:33:17.848Z,12.13
2022-12-26T10:36:30.456Z,12.37
2022-12-26T10:39:38.408Z,11.60
2022-12-26T10:42:44.092Z,11.63
2022-12-26T10:45:55.420Z,11.73
2022-12-26T10:48:58.573Z,11.83
2022-12-26T10:52:03.418Z,10.80
2022-12-26T10:55:29.471Z,11.90
2022-12-26T10:58:34.813Z,11.03
2022-12-26T11:01:40.003Z,19.87
2022-12-26T11:05:27.269Z,13.83
2022-12-26T11:08:25.027Z,16.93
2022-12-26T11:11:45.555Z,12.93
2022-12-26T11:14:50.093Z,13.47
2022-12-26T11:17:54.189Z,11.90
2022-12-26T11:21:12.892Z,11.33
2022-12-26T11:24:20.421Z,11.83
2022-12-26T11:27:25.412Z,11.70
2022-12-26T11:30:32.585Z,11.13
2022-12-26T11:33:37.749Z,11.43
2022-12-26T11:36:47.282Z,11.67
2022-12-26T11:39:52.461Z,10.23
2022-12-26T11:42:57.997Z,10.70
2022-12-26T11:46:02.165Z,10.37
2022-12-26T11:49:06.221Z,9.13
2022-12-26T11:52:37.309Z,10.00
2022-12-26T11:55:40.509Z,9.97
2022-12-26T11:58:44.170Z,9.83
2022-12-26T12:01:48.234Z,9.77
2022-12-26T12:04:53.165Z,9.17
2022-12-26T12:08:12.371Z,8.23
2022-12-26T12:11:23.330Z,9.03
2022-12-26T12:14:35.944Z,8.60
2022-12-26T12:17:47.632Z,9.03
2022-12-26T12:21:05.415Z,9.63
2022-12-26T12:24:39.805Z,9.00
2022-12-26T12:27:49.228Z,8.90
2022-12-26T12:31:04.195Z,9.07
2022-12-26T12:34:20.659Z,8.53
2022-12-26T12:37:31.637Z,8.70
2022-12-26T12:40:42.856Z,9.13
2022-12-26T12:43:54.957Z,7.77
2022-12-26T12:47:08.264Z,7.57
2022-12-26T12:50:19.349Z,7.53
2022-12-26T12:53:41.931Z,7.57
2022-12-26T12:56:50.524Z,7.93
2022-12-26T13:00:04.543Z,6.90
2022-12-26T13:03:12.471Z,7.30
2022-12-26T13:06:19.271Z,8.10
2022-12-26T13:09:26.881Z,7.47
2022-12-26T13:12:34.857Z,7.87
2022-12-26T13:15:41.229Z,7.27
2022-12-26T13:18:50.812Z,7.10
2022-12-26T13:22:01.564Z,6.80
2022-12-26T13:25:03.749Z,5.77
2022-12-26T13:28:16.576Z,6.00
2022-12-26T13:31:19.420Z,5.33
2022-12-26T13:34:22.797Z,4.60
2022-12-26T13:37:59.522Z,3.67
2022-12-26T13:41:18.254Z,3.87
2022-12-26T13:44:28.294Z,3.20
2022-12-26T13:47:36.446Z,2.63
2022-12-26T13:50:55.362Z,2.77
2022-12-26T13:54:09.780Z,2.20
2022-12-26T13:57:27.976Z,1.20
2022-12-26T14:00:45.259Z,1.10
2022-12-26T14:04:00.529Z,0.90
2022-12-26T14:07:19.032Z,1.10
2022-12-26T14:10:31.761Z,1.13
2022-12-26T14:13:51.173Z,1.20
2022-12-26T14:17:01.413Z,1.03
2022-12-26T14:20:19.506Z,1.20
2022-12-26T14:23:40.887Z,1.10
2022-12-26T14:26:52.089Z,1.00
2022-12-26T14:30:18.306Z,1.10
2022-12-26T14:33:30.080Z,1.43
2022-12-26T14:36:41.751Z,1.20
2022-12-26T14:40:06.076Z,1.40
2022-12-26T14:43:32.683Z,1.30
2022-12-26T14:46:58.442Z,1.47
2022-12-26T14:50:41.735Z,1.17
2022-12-26T14:53:45.848Z,1.57
2022-12-26T14:56:49.919Z,1.57
2022-12-26T15:00:16.224Z,1.57
2022-12-26T15:03:31.360Z,1.97
2022-12-26T15:06:59.259Z,2.10
2022-12-26T15:10:34.614Z,2.17
2022-12-26T15:14:24.572Z,2.67
2022-12-26T15:17:38.137Z,2.17
2022-12-26T15:21:02.751Z,2.27
2022-12-26T15:25:17.705Z,1.77
2022-12-26T15:28:37.953Z,1.20
2022-12-26T15:31:53.511Z,1.67
2022-12-26T15:35:12.004Z,1.83
2022-12-26T15:38:30.551Z,1.63
2022-12-26T15:41:40.174Z,1.63
2022-12-26T15:44:50.776Z,1.80
2022-12-26T15:48:03.105Z,1.80
2022-12-26T15:51:13.384Z,2.53
2022-12-26T15:54:28.511Z,2.13
2022-12-26T15:57:41.808Z,2.20
2022-12-26T16:00:50.749Z,2.57
2022-12-26T16:03:57.743Z,2.67
2022-12-26T16:07:09.471Z,2.50
2022-12-26T16:10:29.279Z,2.50
2022-12-26T16:13:32.409Z,3.17
2022-12-26T16:16:37.561Z,2.77
2022-12-26T16:19:41.467Z,2.57
2022-12-26T16:22:46.280Z,2.43
2022-12-26T16:25:49.899Z,2.83
2022-12-26T16:28:54.132Z,2.50
2022-12-26T16:32:03.559Z,2.37
2022-12-26T16:35:07.932Z,2.60
2022-12-26T16:38:16.668Z,2.27
2022-12-26T16:41:21.987Z,2.40
2022-12-26T16:44:31.604Z,4.33
2022-12-26T16:47:34.596Z,6.27
2022-12-26T16:50:46.983Z,5.60
2022-12-26T16:53:50.973Z,3.27
2022-12-26T16:56:58.339Z,3.10
2022-12-26T17:00:01.099Z,2.60
2022-12-26T17:03:10.591Z,2.80
2022-12-26T17:06:16.845Z,2.33
2022-12-26T17:09:23.520Z,3.23
2022-12-26T17:12:30.639Z,2.33
2022-12-26T17:15:36.369Z,2.67
2022-12-26T17:18:47.579Z,2.37
2022-12-26T17:22:22.619Z,2.77
2022-12-26T17:25:29.497Z,3.27
2022-12-26T17:28:32.093Z,3.00
2022-12-26T17:31:39.068Z,3.10
2022-12-26T17:34:42.328Z,3.30
2022-12-26T17:37:46.607Z,2.70
2022-12-26T17:40:54.376Z,3.37
2022-12-26T17:43:57.550Z,3.27
2022-12-26T17:47:02.776Z,3.10
2022-12-26T17:50:05.999Z,2.53
2022-12-26T17:53:17.595Z,3.03
2022-12-26T17:56:27.107Z,3.53
2022-12-26T17:59:29.704Z,7.27
2022-12-26T18:02:32.407Z,3.27
2022-12-26T18:05:36.036Z,3.30
2022-12-26T18:08:41.252Z,3.77
2022-12-26T18:11:45.181Z,3.57
2022-12-26T18:14:47.765Z,3.00
2022-12-26T18:17:52.182Z,3.20
2022-12-26T18:20:54.783Z,3.03
2022-12-26T18:23:57.384Z,3.27
2022-12-26T18:27:01.593Z,3.33
2022-12-26T18:30:04.737Z,5.90
2022-12-26T18:33:07.379Z,3.73
2022-12-26T18:36:12.288Z,3.63
2022-12-26T18:39:16.298Z,3.10
2022-12-26T18:42:20.341Z,2.83
2022-12-26T18:45:22.960Z,3.10
2022-12-26T18:48:25.771Z,3.47
2022-12-26T18:51:28.769Z,2.90
2022-12-26T18:54:31.366Z,3.67
2022-12-26T18:57:35.306Z,3.30
2022-12-26T19:00:38.000Z,3.50
2022-12-26T19:03:40.929Z,3.47
2022-12-26T19:06:43.661Z,3.10
2022-12-26T19:09:47.003Z,3.33
2022-12-26T19:12:51.130Z,3.30
2022-12-26T19:15:53.713Z,6.70
2022-12-26T19:18:56.304Z,5.90
2022-12-26T19:21:59.056Z,3.90
2022-12-26T19:25:01.686Z,3.70
2022-12-26T19:28:06.539Z,4.20
2022-12-26T19:31:10.826Z,4.23
2022-12-26T19:34:13.547Z,4.20
2022-12-26T19:37:16.151Z,4.63
2022-12-26T19:40:24.773Z,3.47
2022-12-26T19:43:29.239Z,3.47
2022-12-26T19:46:31.878Z,3.30
2022-12-26T19:49:34.498Z,3.70
2022-12-26T19:52:38.213Z,6.17
2022-12-26T19:55:40.942Z,7.43
2022-12-26T19:58:45.401Z,3.03
2022-12-26T20:01:48.166Z,4.20
2022-12-26T20:04:50.798Z,3.77
2022-12-26T20:07:53.414Z,3.20
2022-12-26T20:11:00.712Z,3.13
2022-12-26T20:14:07.236Z,3.87
2022-12-26T20:17:12.250Z,3.50
2022-12-26T20:20:14.917Z,4.03
2022-12-26T20:23:17.569Z,3.63
2022-12-26T20:26:22.930Z,2.90
2022-12-26T20:29:27.013Z,3.03
2022-12-26T20:32:29.578Z,2.63
2022-12-26T20:35:32.174Z,2.97
2022-12-26T20:38:35.600Z,2.63
2022-12-26T20:41:38.827Z,3.70
2022-12-26T20:44:42.927Z,3.00
2022-12-26T20:47:45.530Z,2.80
2022-12-26T20:50:56.443Z,3.10
2022-12-26T20:53:59.273Z,2.70
2022-12-26T20:57:02.852Z,2.50
2022-12-26T21:00:08.621Z,2.83
2022-12-26T21:03:11.318Z,3.17
2022-12-26T21:06:16.099Z,3.67
2022-12-26T21:09:18.887Z,2.80
2022-12-26T21:12:21.496Z,2.83
2022-12-26T21:15:25.527Z,2.77
2022-12-26T21:18:28.119Z,3.27
2022-12-26T21:21:32.821Z,2.80
2022-12-26T21:24:35.466Z,3.37
2022-12-26T21:27:42.702Z,3.17
2022-12-26T21:30:46.917Z,4.00
2022-12-26T21:33:49.646Z,3.90
2022-12-26T21:37:10.404Z,7.77
2022-12-26T21:40:13.363Z,3.47
2022-12-26T21:43:16.538Z,2.50
2022-12-26T21:46:21.264Z,2.60
2022-12-26T21:49:24.073Z,2.80
2022-12-26T21:52:26.646Z,2.70
2022-12-26T21:55:30.971Z,2.40
2022-12-26T21:58:54.476Z,2.80
2022-12-26T22:01:58.559Z,2.87
2022-12-26T22:05:00.721Z,3.37
2022-12-26T22:08:04.737Z,3.00
2022-12-26T22:11:35.090Z,2.87
2022-12-26T22:14:37.834Z,2.43
2022-12-26T22:17:41.837Z,2.67
2022-12-26T22:20:45.845Z,2.63
2022-12-26T22:23:50.758Z,3.00
2022-12-26T22:26:53.668Z,2.73
2022-12-26T22:29:56.280Z,2.40
2022-12-26T22:33:00.221Z,2.80
2022-12-26T22:36:07.628Z,2.70
2022-12-26T22:39:13.648Z,3.40
2022-12-26T22:42:16.270Z,2.70
2022-12-26T22:45:18.847Z,2.77
2022-12-26T22:48:23.261Z,2.30
2022-12-26T22:51:27.445Z,2.63
2022-12-26T22:54:30.058Z,2.70
2022-12-26T22:57:32.677Z,2.37
2022-12-26T23:00:35.259Z,2.57
2022-12-26T23:03:39.189Z,2.40
2022-12-26T23:06:42.515Z,3.07
2022-12-26T23:09:45.593Z,2.63
2022-12-26T23:12:48.928Z,1.87
2022-12-26T23:15:56.693Z,2.47
2022-12-26T23:19:21.106Z,2.23
2022-12-26T23:22:24.173Z,2.20
2022-12-26T23:25:26.922Z,2.30
2022-12-26T23:28:47.301Z,2.30
2022-12-26T23:31:49.980Z,2.50
2022-12-26T23:34:53.896Z,2.57
2022-12-26T23:37:56.536Z,2.90
2022-12-26T23:41:00.218Z,1.97
2022-12-26T23:44:03.144Z,2.47
2022-12-26T23:47:05.956Z,2.23
2022-12-26T23:50:11.566Z,2.53
2022-12-26T23:53:14.172Z,2.53
2022-12-26T23:56:16.854Z,2.43
2022-12-26T23:59:19.871Z,2.60
